Leonardo Antonio — ILTB2 — position and weather

sailwx.info

Track history (hours):
 
Tides and Currents Weather Stations Pressure Air Temp Water Temp Dewpoint Dewpoint Depression Visibility Wind Speed Wind Dir Waves Ship Positions

Leonardo Antonio

Last reported at 2018-Mar-15 08:38 UTC. Time now 2018-May-21 09:08 UTC.
Position N 39°50' E 016°36'.
Warning: this ship's position is months out of date.

; draft 3 m.

Type: Fishing. MMSI: 247133570.

Date/timePositionNaut miles runAvg speedWind from/ knotsBaromVisibWave heightAir tempDewpointWater temp
2018-Mar-15 08:38N 39°50' E 016°36'1 7.5
2018-Mar-15 08:30N 39°50' E 016°37'4 7.4
2018-Mar-15 07:59N 39°54' E 016°39'4 7.5
2018-Mar-15 07:29N 39°58' E 016°40'15 3.5
2018-Mar-15 03:12N 40°11' E 016°48'0 0.6
2018-Mar-15 03:00N 40°11' E 016°48'2 3.0
2018-Mar-15 02:21N 40°09' E 016°47'3 2.6
2018-Mar-15 01:06N 40°07' E 016°44'0 2.8
2018-Mar-15 00:58N 40°06' E 016°44'9 0.9
2018-Mar-14 14:43N 39°57' E 016°45'1 3.0
2018-Mar-14 14:29N 39°58' E 016°45'2 3.1
2018-Mar-14 13:48N 40°00' E 016°45'1 3.2
2018-Mar-14 13:21N 40°02' E 016°45'1 1.1
2018-Mar-14 12:45N 40°01' E 016°45'7 1.2
2018-Mar-14 07:02N 39°54' E 016°44'0 3.2
2018-Mar-14 07:00N 39°54' E 016°44'2 3.0
2018-Mar-14 06:28N 39°56' E 016°43'2 3.1
2018-Mar-14 05:58N 39°57' E 016°43'1 3.1
2018-Mar-14 05:29N 39°59' E 016°43'10 2.8
2018-Mar-14 02:01N 40°08' E 016°45'0 0.6
2018-Mar-14 02:00N 40°08' E 016°45'9 2.6
2018-Mar-13 22:31N 39°60' E 016°40'0 7.5
2018-Mar-13 22:29N 39°60' E 016°41'21 2.7
2018-Mar-13 14:42N 39°40' E 016°31'2 6.6
2018-Mar-13 14:21N 39°42' E 016°33'12 4.5
2018-Mar-13 11:43N 39°52' E 016°40'2 2.9
2018-Mar-13 10:52N 39°54' E 016°42'2 0.2
2018-Mar-13 03:37N 39°54' E 016°45'0 2.9
2018-Mar-13 03:28N 39°55' E 016°44'1 2.9
2018-Mar-13 03:00N 39°56' E 016°44'2 3.0
2018-Mar-13 02:29N 39°58' E 016°44'1 2.9
2018-Mar-13 02:00N 39°59' E 016°44'2 3.0
2018-Mar-13 01:26N 40°01' E 016°44'1 3.1
2018-Mar-13 01:00N 40°02' E 016°44'17 3.6
2018-Mar-12 20:23N 39°48' E 016°34'2 0.3
2018-Mar-12 11:09N 39°50' E 016°35'5 6.1
2018-Mar-12 10:16N 39°54' E 016°39'0 1.1
2018-Mar-12 09:52N 39°54' E 016°39'1 3.5
2018-Mar-12 09:28N 39°55' E 016°40'2 3.4
2018-Mar-12 08:59N 39°57' E 016°41'2 3.3
2018-Mar-12 08:28N 39°59' E 016°42'1 1.8
2018-Mar-12 07:56N 39°59' E 016°41'2 0.5
2018-Mar-12 04:49N 39°58' E 016°41'2 5.9
2018-Mar-12 04:24N 39°55' E 016°40'  
2018-Mar-07 20:02N 40°05' E 016°46'0 4.9
2018-Mar-07 19:59N 40°05' E 016°46'12 2.4
2018-Mar-07 14:56N 39°54' E 016°39'4 2.3
2018-Mar-07 13:02N 39°56' E 016°44'0 2.8
2018-Mar-07 12:58N 39°56' E 016°44'3 2.8
2018-Mar-07 11:51N 39°59' E 016°46'5 1.7
2018-Mar-07 09:03N 39°55' E 016°44'12 1.8
2018-Mar-07 02:28N 39°46' E 016°34'4 7.0
2018-Mar-07 01:56N 39°42' E 016°32'2 0.1
2018-Mar-06 11:19N 39°41' E 016°32'2 6.6
2018-Mar-06 10:57N 39°43' E 016°34'6 6.9
2018-Mar-06 10:07N 39°48' E 016°36'1 6.4
2018-Mar-06 09:53N 39°49' E 016°36'3 6.5
2018-Mar-06 09:26N 39°52' E 016°38'2 3.9
2018-Mar-06 08:59N 39°54' E 016°39'2 2.5
2018-Mar-06 08:21N 39°55' E 016°40'1 3.0
2018-Mar-06 07:59N 39°56' E 016°40'1 2.8
2018-Mar-06 07:28N 39°58' E 016°41'1 1.0
2018-Mar-06 06:41N 39°58' E 016°41'4 1.5
2018-Mar-06 04:05N 40°02' E 016°43'2 4.6
2018-Mar-06 03:40N 40°00' E 016°43'4 2.5
2018-Mar-06 01:59N 39°56' E 016°41'2 2.9
2018-Mar-06 01:19N 39°55' E 016°40'1 2.6
2018-Mar-06 01:00N 39°55' E 016°40'1 2.6
2018-Mar-06 00:30N 39°57' E 016°41'2 2.7
2018-Mar-05 23:57N 39°58' E 016°42'8 2.7
2018-Mar-05 21:04N 40°05' E 016°46'0 1.5
2018-Mar-05 20:59N 40°05' E 016°46'0 0.9
2018-Mar-05 20:30N 40°05' E 016°46'4 2.9
2018-Mar-05 18:57N 40°01' E 016°43'1 2.7
2018-Mar-05 18:24N 39°59' E 016°43'1 2.8
2018-Mar-05 17:59N 39°58' E 016°43'7 2.5
2018-Mar-05 15:17N 39°51' E 016°40'1 2.9
2018-Mar-05 14:59N 39°52' E 016°40'3 2.5
2018-Mar-05 13:53N 39°54' E 016°43'2 0.4
2018-Mar-05 09:01N 39°55' E 016°41'1 3.5
2018-Mar-05 08:42N 39°55' E 016°39'  
Track history (hours):
 
Tides and Currents Weather Stations Pressure Air Temp Water Temp Dewpoint Dewpoint Depression Visibility Wind Speed Wind Dir Waves Ship Positions

Leonardo Antonio

Last reported at 2018-Mar-15 08:38 UTC. Time now 2018-May-21 09:08 UTC.
Position N 39°50' E 016°36'.
Warning: this ship's position is months out of date.

; draft 3 m.

Type: Fishing. MMSI: 247133570.

Date/timePositionNaut miles runAvg speedWind from/ knotsBaromVisibWave heightAir tempDewpointWater temp
2018-Mar-15 08:38N 39°50' E 016°36'1 7.5
2018-Mar-15 08:30N 39°50' E 016°37'4 7.4
2018-Mar-15 07:59N 39°54' E 016°39'4 7.5
2018-Mar-15 07:29N 39°58' E 016°40'15 3.5
2018-Mar-15 03:12N 40°11' E 016°48'0 0.6
2018-Mar-15 03:00N 40°11' E 016°48'2 3.0
2018-Mar-15 02:21N 40°09' E 016°47'3 2.6
2018-Mar-15 01:06N 40°07' E 016°44'0 2.8
2018-Mar-15 00:58N 40°06' E 016°44'9 0.9
2018-Mar-14 14:43N 39°57' E 016°45'1 3.0
2018-Mar-14 14:29N 39°58' E 016°45'2 3.1
2018-Mar-14 13:48N 40°00' E 016°45'1 3.2
2018-Mar-14 13:21N 40°02' E 016°45'1 1.1
2018-Mar-14 12:45N 40°01' E 016°45'7 1.2
2018-Mar-14 07:02N 39°54' E 016°44'0 3.2
2018-Mar-14 07:00N 39°54' E 016°44'2 3.0
2018-Mar-14 06:28N 39°56' E 016°43'2 3.1
2018-Mar-14 05:58N 39°57' E 016°43'1 3.1
2018-Mar-14 05:29N 39°59' E 016°43'10 2.8
2018-Mar-14 02:01N 40°08' E 016°45'0 0.6
2018-Mar-14 02:00N 40°08' E 016°45'9 2.6
2018-Mar-13 22:31N 39°60' E 016°40'0 7.5
2018-Mar-13 22:29N 39°60' E 016°41'21 2.7
2018-Mar-13 14:42N 39°40' E 016°31'2 6.6
2018-Mar-13 14:21N 39°42' E 016°33'12 4.5
2018-Mar-13 11:43N 39°52' E 016°40'2 2.9
2018-Mar-13 10:52N 39°54' E 016°42'2 0.2
2018-Mar-13 03:37N 39°54' E 016°45'0 2.9
2018-Mar-13 03:28N 39°55' E 016°44'1 2.9
2018-Mar-13 03:00N 39°56' E 016°44'2 3.0
2018-Mar-13 02:29N 39°58' E 016°44'1 2.9
2018-Mar-13 02:00N 39°59' E 016°44'2 3.0
2018-Mar-13 01:26N 40°01' E 016°44'1 3.1
2018-Mar-13 01:00N 40°02' E 016°44'17 3.6
2018-Mar-12 20:23N 39°48' E 016°34'2 0.3
2018-Mar-12 11:09N 39°50' E 016°35'5 6.1
2018-Mar-12 10:16N 39°54' E 016°39'0 1.1
2018-Mar-12 09:52N 39°54' E 016°39'1 3.5
2018-Mar-12 09:28N 39°55' E 016°40'2 3.4
2018-Mar-12 08:59N 39°57' E 016°41'2 3.3
2018-Mar-12 08:28N 39°59' E 016°42'1 1.8
2018-Mar-12 07:56N 39°59' E 016°41'2 0.5
2018-Mar-12 04:49N 39°58' E 016°41'2 5.9
2018-Mar-12 04:24N 39°55' E 016°40'  
2018-Mar-07 20:02N 40°05' E 016°46'0 4.9
2018-Mar-07 19:59N 40°05' E 016°46'12 2.4
2018-Mar-07 14:56N 39°54' E 016°39'4 2.3
2018-Mar-07 13:02N 39°56' E 016°44'0 2.8
2018-Mar-07 12:58N 39°56' E 016°44'3 2.8
2018-Mar-07 11:51N 39°59' E 016°46'5 1.7
2018-Mar-07 09:03N 39°55' E 016°44'12 1.8
2018-Mar-07 02:28N 39°46' E 016°34'4 7.0
2018-Mar-07 01:56N 39°42' E 016°32'2 0.1
2018-Mar-06 11:19N 39°41' E 016°32'2 6.6
2018-Mar-06 10:57N 39°43' E 016°34'6 6.9
2018-Mar-06 10:07N 39°48' E 016°36'1 6.4
2018-Mar-06 09:53N 39°49' E 016°36'3 6.5
2018-Mar-06 09:26N 39°52' E 016°38'2 3.9
2018-Mar-06 08:59N 39°54' E 016°39'2 2.5
2018-Mar-06 08:21N 39°55' E 016°40'1 3.0
2018-Mar-06 07:59N 39°56' E 016°40'1 2.8
2018-Mar-06 07:28N 39°58' E 016°41'1 1.0
2018-Mar-06 06:41N 39°58' E 016°41'4 1.5
2018-Mar-06 04:05N 40°02' E 016°43'2 4.6
2018-Mar-06 03:40N 40°00' E 016°43'4 2.5
2018-Mar-06 01:59N 39°56' E 016°41'2 2.9
2018-Mar-06 01:19N 39°55' E 016°40'1 2.6
2018-Mar-06 01:00N 39°55' E 016°40'1 2.6
2018-Mar-06 00:30N 39°57' E 016°41'2 2.7
2018-Mar-05 23:57N 39°58' E 016°42'8 2.7
2018-Mar-05 21:04N 40°05' E 016°46'0 1.5
2018-Mar-05 20:59N 40°05' E 016°46'0 0.9
2018-Mar-05 20:30N 40°05' E 016°46'4 2.9
2018-Mar-05 18:57N 40°01' E 016°43'1 2.7
2018-Mar-05 18:24N 39°59' E 016°43'1 2.8
2018-Mar-05 17:59N 39°58' E 016°43'7 2.5
2018-Mar-05 15:17N 39°51' E 016°40'1 2.9
2018-Mar-05 14:59N 39°52' E 016°40'3 2.5
2018-Mar-05 13:53N 39°54' E 016°43'2 0.4
2018-Mar-05 09:01N 39°55' E 016°41'1 3.5
2018-Mar-05 08:42N 39°55' E 016°39'  

Dump ship's entire track history